Time;durP1;ratioP1;P1;durP2;ratioP2;P2;SDS_P1;SDS_P2;PMS_P1;PMS_P2;Temp;Humidity;BMP_temperature;BMP_pressure;BME280_temperature;BME280_humidity;BME280_pressure;Samples;Min_cycle;Max_cycle;Signal;HPM_P1;HPM_P2
2024/03/08 00:00:45;;;;;;;28.33;10.20;;;;;;;5.35;72.31;100163.28;4973592;28;20050;-47
2024/03/08 00:03:11;;;;;;;25.83;10.48;;;;;;;5.38;73.43;100162.47;4970737;28;20499;-41
2024/03/08 00:05:40;;;;;;;23.85;8.95;;;;;;;5.39;72.49;100154.78;4977684;28;20054;-45
2024/03/08 00:08:09;;;;;;;22.38;9.32;;;;;;;5.39;72.63;100159.94;4976937;28;20091;-46
2024/03/08 00:10:38;;;;;;;24.02;10.13;;;;;;;5.36;73.65;100162.44;4972563;28;20519;-47
2024/03/08 00:13:06;;;;;;;28.98;9.73;;;;;;;5.37;74.41;100150.47;4980450;28;20413;-49
2024/03/08 00:15:33;;;;;;;19.00;7.65;;;;;;;5.38;73.38;100153.03;4975813;28;20054;-45
2024/03/08 00:18:00;;;;;;;19.13;7.43;;;;;;;5.39;72.84;100154.78;4975390;28;20069;-41
2024/03/08 00:20:27;;;;;;;30.33;10.70;;;;;;;5.40;73.53;100146.25;4973013;28;20050;-44
2024/03/08 00:22:53;;;;;;;27.98;10.18;;;;;;;5.43;73.40;100145.44;4975101;28;20077;-44
2024/03/08 00:25:20;;;;;;;28.70;10.23;;;;;;;5.44;73.92;100136.03;4974284;28;20050;-50
2024/03/08 00:27:49;;;;;;;24.58;8.23;;;;;;;5.39;74.75;100136.81;4974782;28;20058;-44
2024/03/08 00:30:16;;;;;;;26.92;9.98;;;;;;;5.42;73.39;100137.69;4977856;28;20050;-40
2024/03/08 00:32:43;;;;;;;34.72;11.50;;;;;;;5.44;74.95;100131.75;4975998;28;20051;-43
2024/03/08 00:35:12;;;;;;;31.08;10.57;;;;;;;5.44;73.74;100125.75;4977310;28;20503;-41
2024/03/08 00:37:39;;;;;;;27.60;9.68;;;;;;;5.46;74.42;100124.06;4975070;28;20062;-45
2024/03/08 00:40:08;;;;;;;24.35;9.60;;;;;;;5.45;74.02;100122.34;4975141;28;20046;-45
2024/03/08 00:42:36;;;;;;;23.50;8.43;;;;;;;5.43;75.03;100119.75;4976203;28;20488;-44
2024/03/08 00:45:03;;;;;;;25.80;10.63;;;;;;;5.44;75.34;100107.78;4975658;28;20054;-44
2024/03/08 00:47:29;;;;;;;30.38;11.27;;;;;;;5.43;74.21;100118.91;4977199;28;20103;-44
2024/03/08 00:49:56;;;;;;;25.33;9.85;;;;;;;5.46;74.43;100111.22;4983494;28;20050;-50
2024/03/08 00:52:24;;;;;;;30.80;11.05;;;;;;;5.44;74.29;100110.34;4989938;28;20157;-46
2024/03/08 00:54:51;;;;;;;22.45;8.75;;;;;;;5.44;74.74;100100.91;4983546;28;20057;-48
2024/03/08 00:57:18;;;;;;;26.25;10.75;;;;;;;5.46;75.02;100109.53;4981699;28;20417;-48
2024/03/08 00:59:45;;;;;;;31.35;12.35;;;;;;;5.47;75.50;100100.13;4977836;28;20079;-44
2024/03/08 01:02:12;;;;;;;31.83;10.02;;;;;;;5.49;75.32;100095.88;4986406;28;20058;-48
2024/03/08 01:04:38;;;;;;;34.65;12.20;;;;;;;5.52;74.60;100098.50;4990122;28;20134;-41
2024/03/08 01:07:05;;;;;;;29.30;10.07;;;;;;;5.49;75.74;100088.16;4996243;28;20050;-46
2024/03/08 01:09:32;;;;;;;30.27;11.57;;;;;;;5.53;75.54;100084.81;4997748;28;20533;-45
2024/03/08 01:12:01;;;;;;;32.25;11.43;;;;;;;5.56;74.37;100078.88;4979836;28;20054;-45
2024/03/08 01:14:30;;;;;;;26.52;10.60;;;;;;;5.54;75.33;100081.41;4978221;28;20050;-43
2024/03/08 01:16:57;;;;;;;37.67;12.93;;;;;;;5.57;76.08;100070.34;4982626;28;20051;-47
2024/03/08 01:19:25;;;;;;;26.40;9.73;;;;;;;5.58;75.41;100062.66;4978853;28;20555;-45
2024/03/08 01:21:52;;;;;;;32.90;10.60;;;;;;;5.60;74.71;100066.09;4982688;28;20078;-45
2024/03/08 01:24:20;;;;;;;25.20;9.10;;;;;;;5.58;75.36;100062.66;4982072;28;20435;-43
2024/03/08 01:26:49;;;;;;;30.30;11.85;;;;;;;5.61;75.15;100052.41;4976466;28;20069;-44
2024/03/08 01:29:17;;;;;;;34.58;10.88;;;;;;;5.62;75.03;100049.03;4985641;28;20053;-44
2024/03/08 01:31:44;;;;;;;33.17;11.55;;;;;;;5.61;76.16;100044.72;4985196;28;20050;-43
2024/03/08 01:34:12;;;;;;;30.13;12.38;;;;;;;5.62;75.49;100038.75;4986841;28;20551;-45
2024/03/08 01:36:40;;;;;;;23.75;9.38;;;;;;;5.63;76.00;100032.78;5000241;28;20513;-44
2024/03/08 01:39:09;;;;;;;30.92;12.02;;;;;;;5.59;76.25;100028.41;4988274;28;20138;-45
2024/03/08 01:41:37;;;;;;;28.05;11.65;;;;;;;5.59;76.39;100033.56;5001829;28;20137;-43
2024/03/08 01:44:07;;;;;;;25.52;9.35;;;;;;;5.59;75.49;100022.41;4983752;28;20429;-46
2024/03/08 01:46:35;;;;;;;28.95;10.55;;;;;;;5.59;76.76;100023.28;4993326;28;20420;-43
2024/03/08 01:49:03;;;;;;;22.48;7.63;;;;;;;5.52;76.64;100027.44;4992702;28;20510;-43
2024/03/08 01:51:31;;;;;;;31.33;10.93;;;;;;;5.56;75.91;100018.06;5001811;28;20050;-43
2024/03/08 01:54:02;;;;;;;23.38;8.50;;;;;;;5.53;76.18;100018.91;4990679;28;20046;-44
2024/03/08 01:56:31;;;;;;;27.52;10.02;;;;;;;5.55;77.15;100016.34;4987032;28;20043;-44
2024/03/08 01:59:00;;;;;;;28.75;11.00;;;;;;;5.56;77.01;100018.06;4988817;28;20053;-44
2024/03/08 02:01:28;;;;;;;25.48;9.35;;;;;;;5.54;76.85;100019.75;4985896;28;20046;-45
2024/03/08 02:03:55;;;;;;;27.95;10.15;;;;;;;5.57;76.99;100018.97;4983721;28;20056;-45
2024/03/08 02:06:21;;;;;;;28.95;11.07;;;;;;;5.54;76.56;100009.47;4989503;28;20062;-43
2024/03/08 02:08:48;;;;;;;35.80;12.30;;;;;;;5.56;77.27;100010.38;4987710;28;20065;-43
2024/03/08 02:11:15;;;;;;;25.52;9.32;;;;;;;5.54;76.81;100004.31;4990917;28;20061;-43
2024/03/08 02:13:42;;;;;;;31.98;10.82;;;;;;;5.59;76.13;99999.28;4995187;28;20054;-48
2024/03/08 02:16:09;;;;;;;30.48;11.02;;;;;;;5.59;77.38;99996.72;4992127;28;20104;-40
2024/03/08 02:18:36;;;;;;;33.20;12.23;;;;;;;5.59;76.31;100002.72;4994262;28;20050;-46
2024/03/08 02:21:05;;;;;;;28.63;10.27;;;;;;;5.60;77.37;99989.03;4997166;28;20131;-44
2024/03/08 02:23:33;;;;;;;26.17;9.82;;;;;;;5.59;77.28;99987.31;4978657;28;20050;-45
2024/03/08 02:26:00;;;;;;;28.55;10.88;;;;;;;5.55;76.63;99980.38;4989963;28;20104;-42
2024/03/08 02:28:27;;;;;;;34.88;12.88;;;;;;;5.60;75.98;99983.88;4997926;28;20050;-44
2024/03/08 02:30:57;;;;;;;24.10;8.95;;;;;;;5.58;76.75;99980.44;4993171;28;20042;-45
2024/03/08 02:33:26;;;;;;;29.58;10.80;;;;;;;5.63;77.33;99978.81;4991175;28;20042;-43
2024/03/08 02:35:54;;;;;;;24.10;9.68;;;;;;;5.60;76.49;99965.91;4983763;28;20054;-44
2024/03/08 02:38:22;;;;;;;32.38;10.60;;;;;;;5.58;77.03;99964.16;4991267;28;20057;-46
2024/03/08 02:40:51;;;;;;;33.70;11.98;;;;;;;5.61;76.37;99964.22;5009194;28;20038;-47
2024/03/08 02:43:19;;;;;;;25.33;10.13;;;;;;;5.51;77.79;99956.31;4986335;28;20051;-43
2024/03/08 02:45:46;;;;;;;35.95;12.65;;;;;;;5.54;77.97;99947.81;4984685;28;20053;-42
2024/03/08 02:48:14;;;;;;;28.70;12.10;;;;;;;5.58;77.06;99947.03;4987260;28;20089;-47
2024/03/08 02:50:44;;;;;;;29.50;11.95;;;;;;;5.55;77.51;99944.41;4986170;28;20415;-45
2024/03/08 02:53:12;;;;;;;29.45;11.40;;;;;;;5.56;76.73;99946.13;4992772;28;20057;-46
2024/03/08 02:55:40;;;;;;;34.53;11.55;;;;;;;5.55;77.77;99933.25;4981546;28;20101;-47
2024/03/08 02:58:09;;;;;;;34.25;13.10;;;;;;;5.55;77.22;99922.97;4987939;28;20077;-44
2024/03/08 03:00:38;;;;;;;31.05;11.65;;;;;;;5.55;77.43;99929.00;4984707;28;20050;-49
2024/03/08 03:03:06;;;;;;;28.27;8.90;;;;;;;5.55;77.03;99920.41;4995814;28;20052;-45
2024/03/08 03:05:33;;;;;;;30.65;12.85;;;;;;;5.58;76.78;99917.91;4987764;28;20045;-45
2024/03/08 03:08:01;;;;;;;27.23;9.82;;;;;;;5.55;77.83;99917.84;4988351;28;20078;-44
2024/03/08 03:10:27;;;;;;;29.13;10.25;;;;;;;5.56;77.18;99920.44;4993511;28;20819;-44
2024/03/08 03:12:54;;;;;;;29.05;10.10;;;;;;;5.55;77.29;99905.88;4991576;28;20507;-47
2024/03/08 03:15:21;;;;;;;29.25;12.32;;;;;;;5.56;77.64;99905.03;4989108;28;20038;-43
2024/03/08 03:17:51;;;;;;;35.60;12.93;;;;;;;5.60;77.61;99905.94;4978727;28;20062;-44
2024/03/08 03:20:26;;;;;;;37.03;13.18;;;;;;;5.60;76.75;99909.38;4994954;28;20049;-48
2024/03/08 03:22:53;;;;;;;37.35;11.48;;;;;;;5.57;76.79;99895.63;4983018;28;20137;-42
2024/03/08 03:25:38;;;;;;;36.95;13.07;;;;;;;5.58;77.15;99898.22;4985752;28;20125;-45
2024/03/08 03:28:07;;;;;;;27.38;9.25;;;;;;;5.58;76.78;99897.34;4984430;28;20046;-43
2024/03/08 03:30:35;;;;;;;30.08;11.63;;;;;;;5.57;77.60;99891.34;4987769;28;20104;-44
2024/03/08 03:33:06;;;;;;;30.30;11.57;;;;;;;5.58;76.70;99887.94;4997050;28;20069;-43
2024/03/08 03:35:35;;;;;;;29.45;10.65;;;;;;;5.56;77.03;99888.75;4989302;28;20046;-42
2024/03/08 03:38:07;;;;;;;36.13;12.38;;;;;;;5.57;77.55;99881.06;4994008;28;20085;-46
2024/03/08 03:40:37;;;;;;;30.77;11.02;;;;;;;5.57;77.60;99881.06;4989582;28;20074;-48
2024/03/08 03:43:04;;;;;;;32.90;12.73;;;;;;;5.56;77.44;99873.31;4980399;28;20133;-45
2024/03/08 03:45:34;;;;;;;28.55;11.45;;;;;;;5.56;76.79;99876.75;4986213;28;20534;-47
2024/03/08 03:48:06;;;;;;;24.05;9.07;;;;;;;5.58;76.80;99877.66;4990198;28;20042;-44
2024/03/08 03:50:34;;;;;;;;;;;;;;;5.54;77.31;99875.88;4992037;28;20042;-43
2024/03/08 03:53:03;;;;;;;28.73;10.95;;;;;;;5.57;77.39;99872.50;4988177;28;19929;-42
2024/03/08 03:55:30;;;;;;;28.15;10.48;;;;;;;5.56;77.95;99868.19;4999205;28;20141;-44
2024/03/08 03:57:58;;;;;;;20.92;8.68;;;;;;;5.53;77.25;99863.88;4987747;28;20097;-48
2024/03/08 04:00:26;;;;;;;29.73;11.85;;;;;;;5.57;77.39;99860.50;4989938;28;20046;-45
2024/03/08 04:02:54;;;;;;;31.63;10.43;;;;;;;5.53;77.92;99853.59;4986949;28;20050;-44
2024/03/08 04:05:21;;;;;;;29.13;10.95;;;;;;;5.57;77.79;99855.38;4985197;28;20169;-45
2024/03/08 04:07:48;;;;;;;29.50;11.77;;;;;;;5.57;78.07;99862.22;4991733;28;20138;-44
2024/03/08 04:10:15;;;;;;;38.35;11.40;;;;;;;5.58;77.58;99851.97;4991564;28;20049;-44
2024/03/08 04:12:42;;;;;;;32.22;11.02;;;;;;;5.59;76.98;99845.09;4989721;28;20054;-44
2024/03/08 04:15:10;;;;;;;23.38;8.38;;;;;;;5.54;77.97;99845.03;4980757;28;20483;-43
2024/03/08 04:17:38;;;;;;;32.80;11.75;;;;;;;5.59;77.54;99842.53;4974812;28;20076;-44
2024/03/08 04:20:09;;;;;;;27.98;11.70;;;;;;;5.55;77.98;99836.50;4994246;28;20479;-46
2024/03/08 04:22:37;;;;;;;36.97;12.18;;;;;;;5.58;77.16;99831.41;4985723;28;20049;-46
2024/03/08 04:25:04;;;;;;;38.22;12.05;;;;;;;5.56;77.22;99833.09;4982481;28;20960;-47
2024/03/08 04:27:32;;;;;;;27.42;10.07;;;;;;;5.55;77.79;99833.94;4989384;28;20065;-49
2024/03/08 04:30:00;;;;;;;35.03;11.40;;;;;;;5.58;76.79;99831.41;4979381;28;20523;-44
2024/03/08 04:32:29;;;;;;;29.00;11.70;;;;;;;5.55;77.89;99826.22;4985216;28;20120;-45
2024/03/08 04:34:56;;;;;;;37.15;11.57;;;;;;;5.58;76.97;99831.41;4986058;28;20084;-42
2024/03/08 04:37:23;;;;;;;32.22;11.90;;;;;;;5.57;77.08;99826.25;4977921;28;20147;-48
2024/03/08 04:39:50;;;;;;;31.35;12.70;;;;;;;5.57;77.80;99827.09;4981576;28;20050;-44
2024/03/08 04:42:17;;;;;;;30.58;11.52;;;;;;;5.55;77.13;99828.81;4990392;28;20054;-49
2024/03/08 04:44:45;;;;;;;43.40;14.40;;;;;;;5.57;76.38;99819.41;4986360;28;20056;-44
2024/03/08 04:47:12;;;;;;;32.83;9.07;;;;;;;5.55;77.71;99815.94;4982140;28;20562;-45
2024/03/08 04:49:38;;;;;;;36.10;12.38;;;;;;;5.56;76.62;99817.66;4989280;28;20096;-43
2024/03/08 04:52:06;;;;;;;34.90;11.48;;;;;;;5.59;76.40;99817.72;4980993;28;20058;-49
2024/03/08 04:54:34;;;;;;;41.65;13.07;;;;;;;5.61;76.28;99815.19;4981218;28;20053;-44
2024/03/08 04:57:01;;;;;;;31.42;10.93;;;;;;;5.54;76.30;99819.34;4990160;28;20046;-41
2024/03/08 04:59:32;;;;;;;33.38;10.35;;;;;;;5.58;77.02;99810.88;4979359;28;20482;-42
2024/03/08 05:01:59;;;;;;;42.80;13.70;;;;;;;5.62;76.25;99811.75;4982622;28;20049;-45
2024/03/08 05:04:25;;;;;;;35.22;10.55;;;;;;;5.62;75.75;99812.63;4977667;28;20774;-49
2024/03/08 05:06:53;;;;;;;34.83;11.73;;;;;;;5.62;76.67;99811.75;4987242;28;20416;-46
2024/03/08 05:09:20;;;;;;;36.30;12.50;;;;;;;5.60;76.69;99803.16;4992560;28;20050;-48
2024/03/08 05:11:47;;;;;;;34.25;12.75;;;;;;;5.61;77.29;99805.75;4991883;28;20039;-45
2024/03/08 05:14:16;;;;;;;26.98;9.68;;;;;;;5.58;76.36;99810.00;4984107;28;20063;-45
2024/03/08 05:16:48;;;;;;;39.70;12.05;;;;;;;5.55;75.90;99805.69;4982405;28;20585;-40
2024/03/08 05:19:17;;;;;;;41.75;12.68;;;;;;;5.61;76.36;99805.75;4989182;28;20161;-44
2024/03/08 05:21:44;;;;;;;30.80;11.38;;;;;;;5.60;75.63;99809.16;4992216;28;20050;-46
2024/03/08 05:24:13;;;;;;;31.15;10.63;;;;;;;5.57;76.62;99809.13;4984364;28;20055;-44
2024/03/08 05:26:39;;;;;;;31.42;11.45;;;;;;;5.60;75.62;99803.16;4986954;28;20046;-43
2024/03/08 05:29:06;;;;;;;35.65;10.57;;;;;;;5.60;76.30;99804.03;4985211;28;20050;-45
2024/03/08 05:31:49;;;;;;;35.97;12.13;;;;;;;5.58;75.28;99800.59;4990042;28;20495;-46
2024/03/08 05:34:17;;;;;;;33.75;11.73;;;;;;;5.56;75.94;99807.41;4982494;28;20491;-44
2024/03/08 05:36:44;;;;;;;34.80;11.55;;;;;;;5.52;76.24;99800.50;4986778;28;20058;-43
2024/03/08 05:39:12;;;;;;;34.55;11.77;;;;;;;5.58;76.64;99795.44;4985080;28;20129;-44
2024/03/08 05:41:40;;;;;;;35.63;11.15;;;;;;;5.58;76.15;99800.59;4992045;28;20042;-41
2024/03/08 05:44:08;;;;;;;35.47;11.45;;;;;;;5.57;75.89;99798.84;4983990;28;20054;-48
2024/03/08 05:46:36;;;;;;;37.38;13.05;;;;;;;5.60;76.09;99792.88;4978070;28;20491;-42
2024/03/08 05:49:05;;;;;;;34.92;13.05;;;;;;;5.60;75.50;99793.75;4976067;28;20049;-42
2024/03/08 05:51:34;;;;;;;37.63;12.20;;;;;;;5.61;76.01;99787.75;4988641;28;20133;-46
2024/03/08 05:54:05;;;;;;;33.65;11.90;;;;;;;5.60;75.52;99778.34;4988183;28;20053;-44
2024/03/08 05:56:33;;;;;;;27.60;10.20;;;;;;;5.57;76.28;99780.84;4985093;28;20057;-48
2024/03/08 05:59:00;;;;;;;36.65;12.73;;;;;;;5.59;75.64;99781.75;4987238;28;20096;-44
2024/03/08 06:01:27;;;;;;;38.67;12.20;;;;;;;5.57;75.78;99783.41;4982828;28;20057;-45
2024/03/08 06:03:55;;;;;;;37.55;12.07;;;;;;;5.59;75.62;99765.47;4983596;28;20057;-49
2024/03/08 06:06:24;;;;;;;43.42;13.98;;;;;;;5.58;75.35;99774.91;4982985;28;20046;-48
2024/03/08 06:08:52;;;;;;;30.52;10.23;;;;;;;5.57;76.26;99770.56;4986211;28;20062;-43
2024/03/08 06:11:20;;;;;;;33.65;12.40;;;;;;;5.55;75.72;99774.84;4995536;28;20046;-49
2024/03/08 06:13:48;;;;;;;38.95;11.73;;;;;;;5.56;75.28;99758.59;4995186;28;20129;-42
2024/03/08 06:16:14;;;;;;;36.13;13.00;;;;;;;5.56;76.23;99747.44;4985656;28;20435;-47
2024/03/08 06:18:41;;;;;;;31.55;11.40;;;;;;;5.50;76.66;99745.66;4992431;28;20049;-48
2024/03/08 06:21:11;;;;;;;33.55;12.27;;;;;;;5.54;75.84;99747.41;4985810;28;20053;-42
2024/03/08 06:23:38;;;;;;;35.13;11.02;;;;;;;5.51;76.46;99747.41;4989816;28;20047;-44
2024/03/08 06:26:05;;;;;;;36.08;10.77;;;;;;;5.46;76.70;99744.75;4985549;28;20137;-44
2024/03/08 06:28:32;;;;;;;40.13;13.88;;;;;;;5.45;75.23;99740.47;4989244;28;20058;-43
2024/03/08 06:30:59;;;;;;;34.78;12.65;;;;;;;5.43;76.84;99733.59;4989755;28;20061;-45
2024/03/08 06:33:27;;;;;;;43.10;14.05;;;;;;;5.43;75.74;99733.59;4983569;28;20049;-45
2024/03/08 06:35:57;;;;;;;39.60;14.30;;;;;;;5.42;76.56;99731.84;4976981;28;20043;-42
2024/03/08 06:38:24;;;;;;;23.25;8.85;;;;;;;5.35;76.68;99726.63;4987704;28;20064;-45
2024/03/08 06:40:52;;;;;;;36.00;12.15;;;;;;;5.34;76.98;99719.75;4986838;28;20046;-43
2024/03/08 06:43:19;;;;;;;43.47;13.88;;;;;;;5.29;76.16;99723.97;4999656;28;20077;-45
2024/03/08 06:45:48;;;;;;;43.10;15.57;;;;;;;5.26;76.61;99716.22;4993688;28;20046;-43
2024/03/08 06:48:16;;;;;;;36.13;12.27;;;;;;;5.22;76.32;99709.31;4985489;28;20387;-43
2024/03/08 06:50:45;;;;;;;37.97;12.80;;;;;;;5.21;77.13;99702.47;4987434;28;20082;-46
2024/03/08 06:53:13;;;;;;;29.52;10.25;;;;;;;5.20;76.40;99714.44;4980955;28;20415;-47
2024/03/08 06:55:40;;;;;;;38.40;12.63;;;;;;;5.17;76.59;99708.41;4984915;28;20042;-44
2024/03/08 06:58:07;;;;;;;31.08;11.05;;;;;;;5.22;76.65;99711.88;4986380;28;20145;-45
2024/03/08 07:00:33;;;;;;;35.20;11.38;;;;;;;5.20;77.45;99705.88;4982554;28;20082;-44
2024/03/08 07:03:00;;;;;;;45.75;15.75;;;;;;;5.21;77.63;99705.03;4981877;28;20514;-48
2024/03/08 07:05:28;;;;;;;34.38;11.77;;;;;;;5.17;76.86;99700.69;4986657;28;20066;-43
2024/03/08 07:07:58;;;;;;;37.13;11.77;;;;;;;5.18;76.93;99699.84;4986260;28;20516;-44
2024/03/08 07:10:25;;;;;;;41.13;14.77;;;;;;;5.22;76.88;99696.47;4991146;28;20281;-47
2024/03/08 07:12:53;;;;;;;33.03;13.30;;;;;;;5.24;76.79;99702.53;4989660;28;20050;-47
2024/03/08 07:15:20;;;;;;;45.78;12.35;;;;;;;5.21;77.19;99697.34;4982405;28;20443;-47
2024/03/08 07:17:47;;;;;;;43.47;14.23;;;;;;;5.25;77.55;99699.09;4984863;28;20050;-45
2024/03/08 07:20:18;;;;;;;43.33;13.52;;;;;;;5.28;77.28;99699.16;4980439;28;20116;-46
2024/03/08 07:22:47;;;;;;;39.22;12.25;;;;;;;5.26;78.85;99698.25;4987334;28;20446;-45
2024/03/08 07:25:23;;;;;;;36.25;12.55;;;;;;;5.26;78.91;99700.81;4986033;28;20820;-41
2024/03/08 07:27:52;;;;;;;36.97;12.50;;;;;;;5.29;77.61;99693.16;4979575;28;20519;-50
2024/03/08 07:33:13;;;;;;;29.98;11.85;;;;;;;5.30;78.36;99701.75;4962776;28;20050;-46
2024/03/08 07:35:42;;;;;;;31.45;9.98;;;;;;;5.28;78.50;99702.56;4988048;28;20053;-46
2024/03/08 07:38:09;;;;;;;40.03;12.15;;;;;;;5.30;77.87;99700.00;4983603;28;20058;-42
2024/03/08 07:40:40;;;;;;;42.45;13.80;;;;;;;5.35;78.21;99695.81;4981817;28;20077;-44
2024/03/08 07:43:08;;;;;;;31.75;11.05;;;;;;;5.37;77.99;99693.28;4980928;28;20583;-45
2024/03/08 07:45:35;;;;;;;50.22;14.70;;;;;;;5.43;77.79;99692.50;4984730;28;20058;-45
2024/03/08 07:48:03;;;;;;;29.80;10.57;;;;;;;5.37;77.79;99695.84;4983652;28;20049;-45
2024/03/08 07:50:30;;;;;;;40.83;14.48;;;;;;;5.34;79.02;99690.66;4985251;28;20062;-45
2024/03/08 07:52:56;;;;;;;40.08;11.88;;;;;;;5.37;78.19;99683.84;4976928;28;20061;-46
2024/03/08 07:55:24;;;;;;;31.98;11.45;;;;;;;5.35;78.14;99675.28;4981183;28;20057;-46
2024/03/08 07:57:51;;;;;;;45.13;14.05;;;;;;;5.45;78.32;99675.38;4982392;28;20046;-43
2024/03/08 08:00:18;;;;;;;33.33;10.50;;;;;;;5.44;78.38;99673.66;4980781;28;20057;-45
2024/03/08 08:02:46;;;;;;;39.78;14.15;;;;;;;5.51;77.17;99680.59;4974180;28;20043;-44
2024/03/08 08:05:13;;;;;;;39.00;12.40;;;;;;;5.53;77.35;99676.31;4987022;28;20141;-46
2024/03/08 08:07:43;;;;;;;35.17;13.15;;;;;;;5.56;77.94;99673.78;4980698;28;20046;-48
2024/03/08 08:10:18;;;;;;;;;;;;;;;5.52;78.48;99677.19;4982040;28;20074;-44
2024/03/08 08:12:46;;;;;;;32.15;11.30;;;;;;;5.53;77.61;99663.47;4977915;28;19980;-45
2024/03/08 08:15:12;;;;;;;39.42;13.35;;;;;;;5.59;78.08;99668.69;4974143;28;20058;-45
2024/03/08 08:17:39;;;;;;;33.60;12.05;;;;;;;5.59;77.73;99663.56;4981184;28;20050;-42
2024/03/08 08:20:06;;;;;;;38.22;13.60;;;;;;;5.61;77.96;99669.56;4977742;28;20058;-45
2024/03/08 08:22:33;;;;;;;28.80;11.90;;;;;;;5.59;76.76;99663.56;4977095;28;20042;-47
2024/03/08 08:25:00;;;;;;;36.08;12.95;;;;;;;5.62;77.99;99662.72;4982207;28;20125;-46
2024/03/08 08:27:26;;;;;;;35.08;11.35;;;;;;;5.59;76.81;99648.16;4978613;28;20046;-46
2024/03/08 08:29:53;;;;;;;32.33;12.50;;;;;;;5.58;76.00;99651.56;4982342;28;20046;-43
2024/03/08 08:32:20;;;;;;;38.13;14.25;;;;;;;5.59;76.12;99653.28;4971975;28;20049;-41
2024/03/08 08:34:46;;;;;;;31.20;11.52;;;;;;;5.64;75.98;99641.34;4975770;28;20042;-45
2024/03/08 08:37:13;;;;;;;36.95;13.43;;;;;;;5.64;77.15;99641.34;4977612;28;20125;-45
2024/03/08 08:39:40;;;;;;;38.25;11.88;;;;;;;5.74;76.68;99642.31;4983769;28;20518;-44
2024/03/08 08:42:09;;;;;;;36.35;12.73;;;;;;;5.75;76.90;99641.44;4984945;28;20384;-45
2024/03/08 08:44:36;;;;;;;30.42;13.85;;;;;;;5.66;75.63;99639.66;4981876;28;20050;-44
2024/03/08 08:47:04;;;;;;;37.83;11.95;;;;;;;5.74;75.34;99636.31;4979531;28;20050;-43
2024/03/08 08:49:38;;;;;;;36.88;12.55;;;;;;;5.81;75.51;99640.66;4981210;28;20046;-45
2024/03/08 08:52:05;;;;;;;35.90;12.38;;;;;;;5.82;75.42;99633.81;4981155;28;20140;-44
2024/03/08 08:54:42;;;;;;;;;;;;;;;5.74;74.99;99636.31;4987598;28;20050;-49
2024/03/08 08:57:09;;;;;;;25.67;9.88;;;;;;;5.74;74.98;99631.19;4985029;28;20314;-45
2024/03/08 08:59:39;;;;;;;36.20;12.52;;;;;;;5.85;75.39;99637.28;4980389;28;20062;-42
2024/03/08 09:02:06;;;;;;;27.25;10.98;;;;;;;5.83;74.71;99626.13;4977319;28;20192;-49
2024/03/08 09:04:33;;;;;;;22.65;9.73;;;;;;;5.81;75.96;99626.97;4978092;28;20176;-44
2024/03/08 09:07:01;;;;;;;29.05;11.07;;;;;;;5.80;74.32;99626.09;4978792;28;20042;-46
2024/03/08 09:09:29;;;;;;;33.95;11.25;;;;;;;5.85;75.00;99628.72;4978062;28;20054;-45
2024/03/08 09:11:56;;;;;;;27.77;10.23;;;;;;;5.85;75.00;99623.56;4983711;28;20798;-45
2024/03/08 09:14:23;;;;;;;34.90;12.98;;;;;;;5.92;74.75;99626.19;4983471;28;20046;-45
2024/03/08 09:16:51;;;;;;;33.35;11.20;;;;;;;5.90;75.00;99639.88;4975063;28;20042;-44
2024/03/08 09:19:19;;;;;;;41.13;15.60;;;;;;;5.96;75.03;99621.09;4980093;28;20054;-45
2024/03/08 09:21:46;;;;;;;27.05;10.68;;;;;;;5.94;74.67;99622.81;4977062;28;20050;-43
2024/03/08 09:24:13;;;;;;;28.17;10.45;;;;;;;6.03;75.13;99625.44;4982663;28;20054;-47
2024/03/08 09:26:42;;;;;;;34.80;12.68;;;;;;;6.01;74.80;99622.00;4981334;28;20046;-45
2024/03/08 09:29:10;;;;;;;29.77;12.45;;;;;;;6.00;74.24;99615.13;4982105;28;20048;-50
2024/03/08 09:31:38;;;;;;;37.00;13.80;;;;;;;6.06;73.77;99607.50;4980825;28;20391;-46
2024/03/08 09:34:04;;;;;;;45.72;17.30;;;;;;;6.03;75.16;99607.44;4982410;28;20116;-48
2024/03/08 09:36:32;;;;;;;42.85;16.50;;;;;;;5.86;74.57;99605.59;4978643;28;20057;-45
2024/03/08 09:39:00;;;;;;;35.17;12.43;;;;;;;5.90;74.95;99607.34;4975258;28;21827;-47
2024/03/08 09:41:27;;;;;;;36.83;12.25;;;;;;;6.00;74.87;99592.00;4981503;28;20058;-49
2024/03/08 09:43:55;;;;;;;33.08;12.85;;;;;;;6.00;73.56;99582.56;4978473;28;20799;-44
2024/03/08 09:46:23;;;;;;;30.38;13.13;;;;;;;5.98;74.18;99588.56;4979565;28;20050;-45
2024/03/08 09:48:50;;;;;;;33.17;12.73;;;;;;;5.97;73.36;99581.66;4979151;28;20120;-46
2024/03/08 09:51:17;;;;;;;31.92;11.68;;;;;;;6.06;73.95;99586.06;4979019;28;20050;-46
2024/03/08 09:53:44;;;;;;;30.10;11.98;;;;;;;6.07;74.45;99575.81;4984707;28;20579;-45
2024/03/08 09:56:12;;;;;;;30.40;11.00;;;;;;;6.00;73.94;99558.56;4983596;28;20050;-46
2024/03/08 09:58:54;;;;;;;31.35;11.23;;;;;;;6.09;74.74;99563.84;4985965;28;20766;-42
2024/03/08 10:01:21;;;;;;;32.13;11.20;;;;;;;6.16;73.17;99572.44;4981879;28;20654;-48
2024/03/08 10:03:49;;;;;;;33.00;12.82;;;;;;;6.16;73.00;99542.47;4982230;28;20068;-45
2024/03/08 10:06:15;;;;;;;30.15;11.85;;;;;;;6.23;73.52;99563.94;4980582;28;20050;-43
2024/03/08 10:08:42;;;;;;;24.20;10.20;;;;;;;6.24;73.77;99550.22;4979309;28;20432;-45
2024/03/08 10:11:11;;;;;;;29.58;12.05;;;;;;;6.26;72.55;99547.66;4976765;28;20152;-48
2024/03/08 10:13:40;;;;;;;24.55;10.05;;;;;;;6.34;72.28;99537.41;4975715;28;20526;-44
2024/03/08 10:16:08;;;;;;;25.23;10.02;;;;;;;6.46;72.61;99549.50;4978761;28;20500;-49
2024/03/08 10:18:35;;;;;;;27.95;10.00;;;;;;;6.51;72.19;99538.38;4973927;28;20689;-48
2024/03/08 10:21:03;;;;;;;30.55;11.48;;;;;;;6.59;71.65;99548.72;4975574;28;20073;-49
2024/03/08 10:23:32;;;;;;;24.45;10.75;;;;;;;6.64;71.55;99543.59;4978241;28;20053;-47
2024/03/08 10:26:15;;;;;;;33.75;11.55;;;;;;;6.79;71.84;99532.53;4984370;28;20054;-45
2024/03/08 10:28:44;;;;;;;27.23;11.50;;;;;;;6.73;70.98;99535.06;4984326;28;20093;-45
2024/03/08 10:31:11;;;;;;;25.52;9.93;;;;;;;6.84;71.31;99527.38;4981440;28;20054;-45
2024/03/08 10:33:41;;;;;;;29.65;10.93;;;;;;;6.89;71.51;99528.28;4979229;28;20077;-48
2024/03/08 10:36:09;;;;;;;27.63;10.07;;;;;;;6.99;71.40;99524.03;4979736;28;20443;-46
2024/03/08 10:38:40;;;;;;;28.70;11.23;;;;;;;7.07;70.88;99519.75;4980017;28;20503;-44
2024/03/08 10:41:09;;;;;;;30.77;12.75;;;;;;;7.30;72.04;99518.94;4979032;28;20066;-47
2024/03/08 10:46:35;;;;;;;30.13;10.98;;;;;;;7.36;69.80;99500.91;5049201;27;20837;-50
2024/03/08 10:49:08;;;;;;;27.23;9.07;;;;;;;7.36;68.86;99507.81;5038698;28;20623;-47
2024/03/08 10:51:38;;;;;;;28.73;13.10;;;;;;;7.30;69.70;99499.19;5040111;28;20773;-43
2024/03/08 10:54:07;;;;;;;26.73;9.40;;;;;;;7.33;69.96;99495.78;5044990;28;20084;-50
2024/03/08 10:56:33;;;;;;;29.67;11.38;;;;;;;7.41;69.48;99499.22;5038597;28;20495;-45
2024/03/08 10:59:01;;;;;;;26.50;11.02;;;;;;;7.43;69.97;99494.06;5045236;28;20056;-47
2024/03/08 11:01:29;;;;;;;25.98;10.40;;;;;;;7.42;69.49;99493.19;5050259;28;20044;-50
2024/03/08 11:03:56;;;;;;;34.10;12.93;;;;;;;7.40;69.17;99476.88;5050877;28;20048;-48
2024/03/08 11:06:42;;;;;;;29.92;11.00;;;;;;;7.42;68.81;99482.91;5057374;28;20056;-47
2024/03/08 11:09:27;;;;;;;32.55;11.43;;;;;;;7.44;68.92;99483.75;5067864;28;20055;-50
2024/03/08 11:14:59;;;;;;;35.22;14.98;;;;;;;7.52;69.57;99473.47;5066361;27;20526;-45
2024/03/08 11:20:15;;;;;;;27.05;12.07;;;;;;;7.55;69.42;99459.72;5083469;27;20394;-43
2024/03/08 11:22:50;;;;;;;30.10;13.07;;;;;;;7.56;69.60;99456.25;5025250;28;20132;-46
2024/03/08 11:28:16;;;;;;;35.22;12.10;;;;;;;7.80;69.45;99446.81;5028476;28;20410;-44
2024/03/08 11:30:47;;;;;;;31.23;11.52;;;;;;;7.92;68.36;99446.81;5016516;28;20518;-45
2024/03/08 11:33:16;;;;;;;26.75;10.32;;;;;;;7.95;68.23;99451.97;5015564;28;20145;-43
2024/03/08 11:35:45;;;;;;;25.00;11.00;;;;;;;7.95;68.41;99444.22;5013553;28;20045;-47
2024/03/08 11:38:13;;;;;;;28.95;10.65;;;;;;;7.83;68.52;99433.91;5016307;28;20077;-49
2024/03/08 11:40:40;;;;;;;26.27;10.70;;;;;;;7.84;68.21;99436.47;5011722;28;20049;-47
2024/03/08 11:43:07;;;;;;;30.65;14.48;;;;;;;7.79;67.68;99438.22;5014423;28;20058;-47
2024/03/08 11:45:36;;;;;;;25.40;8.80;;;;;;;7.65;67.07;99433.09;5015191;28;20045;-50